sensor_id;sensor_type;location;lat;lon;timestamp;P1;durP1;ratioP1;P2;durP2;ratioP2
56037;SDS011;41907;47.848;9.000;2022-11-09T00:00:29;10.63;;;6.05;;
56037;SDS011;41907;47.848;9.000;2022-11-09T00:02:55;11.20;;;6.10;;
56037;SDS011;41907;47.848;9.000;2022-11-09T00:05:20;10.95;;;6.78;;
56037;SDS011;41907;47.848;9.000;2022-11-09T00:07:45;10.45;;;6.45;;
56037;SDS011;41907;47.848;9.000;2022-11-09T00:10:11;12.52;;;6.95;;
56037;SDS011;41907;47.848;9.000;2022-11-09T00:12:36;12.95;;;6.78;;
56037;SDS011;41907;47.848;9.000;2022-11-09T00:15:01;10.35;;;6.80;;
56037;SDS011;41907;47.848;9.000;2022-11-09T00:17:26;14.30;;;6.90;;
56037;SDS011;41907;47.848;9.000;2022-11-09T00:19:52;12.70;;;6.72;;
56037;SDS011;41907;47.848;9.000;2022-11-09T00:22:17;14.13;;;7.07;;
56037;SDS011;41907;47.848;9.000;2022-11-09T00:24:42;16.05;;;6.93;;
56037;SDS011;41907;47.848;9.000;2022-11-09T00:27:08;11.82;;;6.82;;
56037;SDS011;41907;47.848;9.000;2022-11-09T00:29:33;10.52;;;6.53;;
56037;SDS011;41907;47.848;9.000;2022-11-09T00:31:58;13.90;;;5.88;;
56037;SDS011;41907;47.848;9.000;2022-11-09T00:34:24;13.80;;;7.13;;
56037;SDS011;41907;47.848;9.000;2022-11-09T00:36:49;10.52;;;5.63;;
56037;SDS011;41907;47.848;9.000;2022-11-09T00:39:14;10.88;;;6.20;;
56037;SDS011;41907;47.848;9.000;2022-11-09T00:41:40;9.18;;;5.32;;
56037;SDS011;41907;47.848;9.000;2022-11-09T00:44:05;10.15;;;5.22;;
56037;SDS011;41907;47.848;9.000;2022-11-09T00:46:30;8.98;;;6.00;;
56037;SDS011;41907;47.848;9.000;2022-11-09T00:48:56;11.75;;;5.88;;
56037;SDS011;41907;47.848;9.000;2022-11-09T00:51:21;9.50;;;6.20;;
56037;SDS011;41907;47.848;9.000;2022-11-09T00:53:47;9.45;;;6.28;;
56037;SDS011;41907;47.848;9.000;2022-11-09T00:56:12;12.70;;;6.28;;
56037;SDS011;41907;47.848;9.000;2022-11-09T00:58:37;12.60;;;6.38;;
56037;SDS011;41907;47.848;9.000;2022-11-09T01:01:14;11.73;;;6.28;;
56037;SDS011;41907;47.848;9.000;2022-11-09T01:03:41;9.50;;;5.90;;
56037;SDS011;41907;47.848;9.000;2022-11-09T01:06:08;11.65;;;6.65;;
56037;SDS011;41907;47.848;9.000;2022-11-09T01:08:37;11.52;;;5.97;;
56037;SDS011;41907;47.848;9.000;2022-11-09T01:11:06;13.05;;;6.47;;
56037;SDS011;41907;47.848;9.000;2022-11-09T01:13:33;12.13;;;6.10;;
56037;SDS011;41907;47.848;9.000;2022-11-09T01:16:03;10.55;;;6.70;;
56037;SDS011;41907;47.848;9.000;2022-11-09T01:18:30;12.88;;;6.43;;
56037;SDS011;41907;47.848;9.000;2022-11-09T01:20:55;11.82;;;6.53;;
56037;SDS011;41907;47.848;9.000;2022-11-09T01:23:21;10.35;;;6.18;;
56037;SDS011;41907;47.848;9.000;2022-11-09T01:25:46;11.02;;;7.03;;
56037;SDS011;41907;47.848;9.000;2022-11-09T01:28:11;11.95;;;7.55;;
56037;SDS011;41907;47.848;9.000;2022-11-09T01:30:38;10.35;;;6.05;;
56037;SDS011;41907;47.848;9.000;2022-11-09T01:33:04;9.98;;;5.93;;
56037;SDS011;41907;47.848;9.000;2022-11-09T01:35:32;9.85;;;5.97;;
56037;SDS011;41907;47.848;9.000;2022-11-09T01:37:58;13.07;;;7.10;;
56037;SDS011;41907;47.848;9.000;2022-11-09T01:40:23;8.68;;;6.32;;
56037;SDS011;41907;47.848;9.000;2022-11-09T01:42:50;10.25;;;6.72;;
56037;SDS011;41907;47.848;9.000;2022-11-09T01:47:41;11.10;;;6.45;;
56037;SDS011;41907;47.848;9.000;2022-11-09T01:50:07;10.32;;;5.47;;
56037;SDS011;41907;47.848;9.000;2022-11-09T01:52:37;8.55;;;5.22;;
56037;SDS011;41907;47.848;9.000;2022-11-09T01:55:10;8.10;;;4.80;;
56037;SDS011;41907;47.848;9.000;2022-11-09T01:57:44;6.15;;;4.53;;
56037;SDS011;41907;47.848;9.000;2022-11-09T02:00:14;9.25;;;5.00;;
56037;SDS011;41907;47.848;9.000;2022-11-09T02:02:45;10.02;;;5.57;;
56037;SDS011;41907;47.848;9.000;2022-11-09T02:05:18;8.63;;;4.88;;
56037;SDS011;41907;47.848;9.000;2022-11-09T02:07:47;10.20;;;5.53;;
56037;SDS011;41907;47.848;9.000;2022-11-09T02:10:21;8.82;;;5.65;;
56037;SDS011;41907;47.848;9.000;2022-11-09T02:12:55;9.77;;;6.22;;
56037;SDS011;41907;47.848;9.000;2022-11-09T02:15:22;7.95;;;5.40;;
56037;SDS011;41907;47.848;9.000;2022-11-09T02:17:49;29.33;;;6.65;;
56037;SDS011;41907;47.848;9.000;2022-11-09T02:20:17;8.55;;;5.85;;
56037;SDS011;41907;47.848;9.000;2022-11-09T02:22:43;9.90;;;6.43;;
56037;SDS011;41907;47.848;9.000;2022-11-09T02:25:09;10.52;;;6.18;;
56037;SDS011;41907;47.848;9.000;2022-11-09T02:27:36;12.35;;;6.65;;
56037;SDS011;41907;47.848;9.000;2022-11-09T02:30:03;9.85;;;6.00;;
56037;SDS011;41907;47.848;9.000;2022-11-09T02:32:29;9.48;;;5.93;;
56037;SDS011;41907;47.848;9.000;2022-11-09T02:34:55;7.75;;;4.68;;
56037;SDS011;41907;47.848;9.000;2022-11-09T02:37:27;10.27;;;5.30;;
56037;SDS011;41907;47.848;9.000;2022-11-09T02:39:55;11.45;;;5.15;;
56037;SDS011;41907;47.848;9.000;2022-11-09T02:42:22;9.75;;;5.90;;
56037;SDS011;41907;47.848;9.000;2022-11-09T02:44:49;8.80;;;5.80;;
56037;SDS011;41907;47.848;9.000;2022-11-09T02:47:19;9.15;;;5.32;;
56037;SDS011;41907;47.848;9.000;2022-11-09T02:49:44;11.65;;;6.22;;
56037;SDS011;41907;47.848;9.000;2022-11-09T02:52:10;9.10;;;5.63;;
56037;SDS011;41907;47.848;9.000;2022-11-09T02:54:35;12.43;;;6.22;;
56037;SDS011;41907;47.848;9.000;2022-11-09T02:57:01;10.82;;;6.30;;
56037;SDS011;41907;47.848;9.000;2022-11-09T02:59:26;9.57;;;5.93;;
56037;SDS011;41907;47.848;9.000;2022-11-09T03:01:51;9.65;;;5.80;;
56037;SDS011;41907;47.848;9.000;2022-11-09T03:04:16;10.43;;;5.90;;
56037;SDS011;41907;47.848;9.000;2022-11-09T03:06:42;11.20;;;6.38;;
56037;SDS011;41907;47.848;9.000;2022-11-09T03:09:08;9.48;;;5.28;;
56037;SDS011;41907;47.848;9.000;2022-11-09T03:11:35;9.77;;;6.30;;
56037;SDS011;41907;47.848;9.000;2022-11-09T03:14:01;9.18;;;5.15;;
56037;SDS011;41907;47.848;9.000;2022-11-09T03:16:27;7.35;;;5.00;;
56037;SDS011;41907;47.848;9.000;2022-11-09T03:18:53;9.20;;;5.50;;
56037;SDS011;41907;47.848;9.000;2022-11-09T03:21:19;9.30;;;6.20;;
56037;SDS011;41907;47.848;9.000;2022-11-09T03:23:46;8.95;;;5.60;;
56037;SDS011;41907;47.848;9.000;2022-11-09T03:26:12;9.77;;;5.38;;
56037;SDS011;41907;47.848;9.000;2022-11-09T03:28:38;10.40;;;5.28;;
56037;SDS011;41907;47.848;9.000;2022-11-09T03:31:03;9.63;;;5.68;;
56037;SDS011;41907;47.848;9.000;2022-11-09T03:33:29;9.85;;;5.57;;
56037;SDS011;41907;47.848;9.000;2022-11-09T03:35:54;9.00;;;5.38;;
56037;SDS011;41907;47.848;9.000;2022-11-09T03:38:20;9.80;;;5.60;;
56037;SDS011;41907;47.848;9.000;2022-11-09T03:40:45;12.13;;;5.53;;
56037;SDS011;41907;47.848;9.000;2022-11-09T03:43:10;10.00;;;6.13;;
56037;SDS011;41907;47.848;9.000;2022-11-09T03:45:36;11.63;;;5.65;;
56037;SDS011;41907;47.848;9.000;2022-11-09T03:48:01;9.73;;;5.80;;
56037;SDS011;41907;47.848;9.000;2022-11-09T03:50:27;9.15;;;6.18;;
56037;SDS011;41907;47.848;9.000;2022-11-09T03:52:54;9.63;;;6.38;;
56037;SDS011;41907;47.848;9.000;2022-11-09T03:55:19;7.60;;;4.90;;
56037;SDS011;41907;47.848;9.000;2022-11-09T03:57:45;8.55;;;5.28;;
56037;SDS011;41907;47.848;9.000;2022-11-09T04:00:11;8.82;;;5.57;;
56037;SDS011;41907;47.848;9.000;2022-11-09T04:02:38;8.32;;;5.70;;
56037;SDS011;41907;47.848;9.000;2022-11-09T04:05:04;9.13;;;5.40;;
56037;SDS011;41907;47.848;9.000;2022-11-09T04:07:30;9.20;;;5.55;;
56037;SDS011;41907;47.848;9.000;2022-11-09T04:09:55;8.05;;;5.38;;
56037;SDS011;41907;47.848;9.000;2022-11-09T04:12:21;8.70;;;4.88;;
56037;SDS011;41907;47.848;9.000;2022-11-09T04:14:46;10.00;;;4.68;;
56037;SDS011;41907;47.848;9.000;2022-11-09T04:17:11;6.05;;;4.07;;
56037;SDS011;41907;47.848;9.000;2022-11-09T04:19:37;6.05;;;4.07;;
56037;SDS011;41907;47.848;9.000;2022-11-09T04:22:02;5.78;;;3.88;;
56037;SDS011;41907;47.848;9.000;2022-11-09T04:24:27;7.40;;;4.63;;
56037;SDS011;41907;47.848;9.000;2022-11-09T04:26:52;6.95;;;4.40;;
56037;SDS011;41907;47.848;9.000;2022-11-09T04:29:18;9.13;;;4.93;;
56037;SDS011;41907;47.848;9.000;2022-11-09T04:31:43;11.25;;;5.20;;
56037;SDS011;41907;47.848;9.000;2022-11-09T04:34:08;7.25;;;4.60;;
56037;SDS011;41907;47.848;9.000;2022-11-09T04:36:34;8.07;;;4.50;;
56037;SDS011;41907;47.848;9.000;2022-11-09T04:38:59;7.47;;;3.97;;
56037;SDS011;41907;47.848;9.000;2022-11-09T04:41:26;7.43;;;4.53;;
56037;SDS011;41907;47.848;9.000;2022-11-09T04:43:52;5.10;;;3.53;;
56037;SDS011;41907;47.848;9.000;2022-11-09T04:46:17;6.55;;;3.92;;
56037;SDS011;41907;47.848;9.000;2022-11-09T04:48:42;5.70;;;3.45;;
56037;SDS011;41907;47.848;9.000;2022-11-09T04:51:08;5.10;;;3.55;;
56037;SDS011;41907;47.848;9.000;2022-11-09T04:53:35;6.47;;;4.25;;
56037;SDS011;41907;47.848;9.000;2022-11-09T04:56:01;9.32;;;5.20;;
56037;SDS011;41907;47.848;9.000;2022-11-09T04:58:28;6.25;;;4.25;;
56037;SDS011;41907;47.848;9.000;2022-11-09T05:00:53;6.38;;;4.40;;
56037;SDS011;41907;47.848;9.000;2022-11-09T05:03:25;9.07;;;4.65;;
56037;SDS011;41907;47.848;9.000;2022-11-09T05:05:50;6.85;;;4.97;;
56037;SDS011;41907;47.848;9.000;2022-11-09T05:08:15;7.65;;;4.47;;
56037;SDS011;41907;47.848;9.000;2022-11-09T05:10:41;8.38;;;4.93;;
56037;SDS011;41907;47.848;9.000;2022-11-09T05:13:07;7.35;;;4.72;;
56037;SDS011;41907;47.848;9.000;2022-11-09T05:15:34;6.22;;;4.10;;
56037;SDS011;41907;47.848;9.000;2022-11-09T05:18:00;8.90;;;4.68;;
56037;SDS011;41907;47.848;9.000;2022-11-09T05:20:27;8.88;;;4.55;;
56037;SDS011;41907;47.848;9.000;2022-11-09T05:22:53;6.82;;;4.95;;
56037;SDS011;41907;47.848;9.000;2022-11-09T05:25:37;10.77;;;5.60;;
56037;SDS011;41907;47.848;9.000;2022-11-09T05:28:03;8.82;;;5.38;;
56037;SDS011;41907;47.848;9.000;2022-11-09T05:30:29;9.10;;;6.03;;
56037;SDS011;41907;47.848;9.000;2022-11-09T05:32:54;8.38;;;5.55;;
56037;SDS011;41907;47.848;9.000;2022-11-09T05:35:19;12.93;;;5.60;;
56037;SDS011;41907;47.848;9.000;2022-11-09T05:37:45;11.00;;;5.55;;
56037;SDS011;41907;47.848;9.000;2022-11-09T05:40:12;12.00;;;6.15;;
56037;SDS011;41907;47.848;9.000;2022-11-09T05:42:38;10.45;;;5.03;;
56037;SDS011;41907;47.848;9.000;2022-11-09T05:45:08;9.85;;;6.63;;
56037;SDS011;41907;47.848;9.000;2022-11-09T05:47:38;8.30;;;5.18;;
56037;SDS011;41907;47.848;9.000;2022-11-09T05:50:05;9.55;;;5.25;;
56037;SDS011;41907;47.848;9.000;2022-11-09T05:52:32;6.95;;;4.75;;
56037;SDS011;41907;47.848;9.000;2022-11-09T05:54:57;9.48;;;5.05;;
56037;SDS011;41907;47.848;9.000;2022-11-09T05:57:24;6.25;;;4.53;;
56037;SDS011;41907;47.848;9.000;2022-11-09T05:59:50;11.35;;;6.15;;
56037;SDS011;41907;47.848;9.000;2022-11-09T06:02:15;14.40;;;6.70;;
56037;SDS011;41907;47.848;9.000;2022-11-09T06:04:41;9.05;;;5.80;;
56037;SDS011;41907;47.848;9.000;2022-11-09T06:07:06;12.88;;;5.93;;
56037;SDS011;41907;47.848;9.000;2022-11-09T06:09:31;11.30;;;6.75;;
56037;SDS011;41907;47.848;9.000;2022-11-09T06:11:57;14.05;;;7.47;;
56037;SDS011;41907;47.848;9.000;2022-11-09T06:14:22;13.95;;;8.20;;
56037;SDS011;41907;47.848;9.000;2022-11-09T06:16:47;14.10;;;7.78;;
56037;SDS011;41907;47.848;9.000;2022-11-09T06:19:13;18.20;;;8.43;;
56037;SDS011;41907;47.848;9.000;2022-11-09T06:21:38;11.25;;;7.30;;
56037;SDS011;41907;47.848;9.000;2022-11-09T06:24:03;11.18;;;6.68;;
56037;SDS011;41907;47.848;9.000;2022-11-09T06:26:29;10.52;;;6.78;;
56037;SDS011;41907;47.848;9.000;2022-11-09T06:28:54;13.48;;;7.32;;
56037;SDS011;41907;47.848;9.000;2022-11-09T06:31:19;10.90;;;7.07;;
56037;SDS011;41907;47.848;9.000;2022-11-09T06:33:45;12.98;;;7.68;;
56037;SDS011;41907;47.848;9.000;2022-11-09T06:36:10;12.93;;;7.25;;
56037;SDS011;41907;47.848;9.000;2022-11-09T06:38:36;14.85;;;8.50;;
56037;SDS011;41907;47.848;9.000;2022-11-09T06:41:01;15.00;;;10.30;;
56037;SDS011;41907;47.848;9.000;2022-11-09T06:43:27;15.90;;;10.07;;
56037;SDS011;41907;47.848;9.000;2022-11-09T06:45:53;14.82;;;9.00;;
56037;SDS011;41907;47.848;9.000;2022-11-09T06:48:19;15.57;;;7.85;;
56037;SDS011;41907;47.848;9.000;2022-11-09T06:50:45;11.70;;;9.02;;
56037;SDS011;41907;47.848;9.000;2022-11-09T06:53:11;17.38;;;10.00;;
56037;SDS011;41907;47.848;9.000;2022-11-09T06:55:38;11.70;;;7.65;;
56037;SDS011;41907;47.848;9.000;2022-11-09T06:58:05;12.88;;;8.75;;
56037;SDS011;41907;47.848;9.000;2022-11-09T07:00:31;15.52;;;8.35;;
56037;SDS011;41907;47.848;9.000;2022-11-09T07:02:56;11.45;;;7.43;;
56037;SDS011;41907;47.848;9.000;2022-11-09T07:05:22;12.27;;;7.55;;
56037;SDS011;41907;47.848;9.000;2022-11-09T07:07:47;14.15;;;8.13;;
56037;SDS011;41907;47.848;9.000;2022-11-09T07:10:13;30.50;;;17.40;;
56037;SDS011;41907;47.848;9.000;2022-11-09T07:12:39;15.75;;;10.85;;
56037;SDS011;41907;47.848;9.000;2022-11-09T07:15:04;15.35;;;9.65;;
56037;SDS011;41907;47.848;9.000;2022-11-09T07:17:30;15.10;;;10.82;;
56037;SDS011;41907;47.848;9.000;2022-11-09T07:19:57;13.25;;;9.27;;
56037;SDS011;41907;47.848;9.000;2022-11-09T07:22:23;15.38;;;8.25;;
56037;SDS011;41907;47.848;9.000;2022-11-09T07:24:48;11.23;;;7.93;;
56037;SDS011;41907;47.848;9.000;2022-11-09T07:27:14;9.75;;;6.50;;
56037;SDS011;41907;47.848;9.000;2022-11-09T07:29:39;13.57;;;7.85;;
56037;SDS011;41907;47.848;9.000;2022-11-09T07:32:04;14.27;;;7.55;;
56037;SDS011;41907;47.848;9.000;2022-11-09T07:34:30;11.32;;;8.05;;
56037;SDS011;41907;47.848;9.000;2022-11-09T07:36:55;12.30;;;7.65;;
56037;SDS011;41907;47.848;9.000;2022-11-09T07:39:20;14.88;;;8.43;;
56037;SDS011;41907;47.848;9.000;2022-11-09T07:41:46;15.65;;;9.23;;
56037;SDS011;41907;47.848;9.000;2022-11-09T07:44:12;13.05;;;8.20;;
56037;SDS011;41907;47.848;9.000;2022-11-09T07:46:42;12.75;;;8.93;;
56037;SDS011;41907;47.848;9.000;2022-11-09T07:49:16;14.13;;;9.52;;
56037;SDS011;41907;47.848;9.000;2022-11-09T07:51:41;14.38;;;10.27;;
56037;SDS011;41907;47.848;9.000;2022-11-09T07:54:08;12.73;;;9.35;;
56037;SDS011;41907;47.848;9.000;2022-11-09T07:56:34;16.15;;;9.65;;
56037;SDS011;41907;47.848;9.000;2022-11-09T07:59:00;14.82;;;10.00;;
56037;SDS011;41907;47.848;9.000;2022-11-09T08:01:25;21.92;;;13.20;;
56037;SDS011;41907;47.848;9.000;2022-11-09T08:03:51;19.48;;;13.65;;
56037;SDS011;41907;47.848;9.000;2022-11-09T08:06:17;23.95;;;14.50;;
56037;SDS011;41907;47.848;9.000;2022-11-09T08:08:43;25.10;;;15.15;;
56037;SDS011;41907;47.848;9.000;2022-11-09T08:11:08;19.23;;;9.98;;
56037;SDS011;41907;47.848;9.000;2022-11-09T08:13:33;13.25;;;8.15;;
56037;SDS011;41907;47.848;9.000;2022-11-09T08:15:59;14.82;;;9.02;;
56037;SDS011;41907;47.848;9.000;2022-11-09T08:18:26;20.75;;;13.05;;
56037;SDS011;41907;47.848;9.000;2022-11-09T08:20:51;32.97;;;15.38;;
56037;SDS011;41907;47.848;9.000;2022-11-09T08:23:17;27.38;;;15.32;;
56037;SDS011;41907;47.848;9.000;2022-11-09T08:25:45;21.95;;;14.05;;
56037;SDS011;41907;47.848;9.000;2022-11-09T08:28:11;28.30;;;15.18;;
56037;SDS011;41907;47.848;9.000;2022-11-09T08:30:37;26.58;;;16.23;;
56037;SDS011;41907;47.848;9.000;2022-11-09T08:33:02;29.10;;;16.52;;
56037;SDS011;41907;47.848;9.000;2022-11-09T08:35:28;23.55;;;16.13;;
56037;SDS011;41907;47.848;9.000;2022-11-09T08:37:54;26.15;;;15.70;;
56037;SDS011;41907;47.848;9.000;2022-11-09T08:40:23;23.17;;;14.93;;
56037;SDS011;41907;47.848;9.000;2022-11-09T08:42:50;21.52;;;13.38;;
56037;SDS011;41907;47.848;9.000;2022-11-09T08:45:16;18.65;;;10.82;;
56037;SDS011;41907;47.848;9.000;2022-11-09T08:47:42;14.55;;;10.25;;
56037;SDS011;41907;47.848;9.000;2022-11-09T08:50:08;13.63;;;9.10;;
56037;SDS011;41907;47.848;9.000;2022-11-09T08:52:34;15.23;;;9.13;;
56037;SDS011;41907;47.848;9.000;2022-11-09T08:55:00;13.13;;;9.68;;
56037;SDS011;41907;47.848;9.000;2022-11-09T08:57:26;16.70;;;9.32;;
56037;SDS011;41907;47.848;9.000;2022-11-09T08:59:51;13.82;;;8.57;;
56037;SDS011;41907;47.848;9.000;2022-11-09T09:02:16;14.20;;;8.35;;
56037;SDS011;41907;47.848;9.000;2022-11-09T09:04:42;10.70;;;7.25;;
56037;SDS011;41907;47.848;9.000;2022-11-09T09:07:08;13.25;;;7.07;;
56037;SDS011;41907;47.848;9.000;2022-11-09T09:09:34;10.82;;;6.85;;
56037;SDS011;41907;47.848;9.000;2022-11-09T09:12:02;11.70;;;7.45;;
56037;SDS011;41907;47.848;9.000;2022-11-09T09:14:28;9.80;;;6.65;;
56037;SDS011;41907;47.848;9.000;2022-11-09T09:16:54;8.65;;;5.75;;
56037;SDS011;41907;47.848;9.000;2022-11-09T09:19:20;15.60;;;7.57;;
56037;SDS011;41907;47.848;9.000;2022-11-09T09:21:45;11.05;;;6.95;;
56037;SDS011;41907;47.848;9.000;2022-11-09T09:24:11;8.60;;;5.60;;
56037;SDS011;41907;47.848;9.000;2022-11-09T09:26:36;10.43;;;6.10;;
56037;SDS011;41907;47.848;9.000;2022-11-09T09:29:02;12.00;;;7.32;;
56037;SDS011;41907;47.848;9.000;2022-11-09T09:31:27;8.75;;;5.57;;
56037;SDS011;41907;47.848;9.000;2022-11-09T09:33:52;5.88;;;4.75;;
56037;SDS011;41907;47.848;9.000;2022-11-09T09:36:19;10.15;;;5.90;;
56037;SDS011;41907;47.848;9.000;2022-11-09T09:38:48;8.60;;;5.85;;
56037;SDS011;41907;47.848;9.000;2022-11-09T09:41:50;6.38;;;3.97;;
56037;SDS011;41907;47.848;9.000;2022-11-09T09:44:34;5.30;;;4.38;;
56037;SDS011;41907;47.848;9.000;2022-11-09T09:49:39;6.60;;;4.97;;
56037;SDS011;41907;47.848;9.000;2022-11-09T09:52:15;8.48;;;5.00;;
56037;SDS011;41907;47.848;9.000;2022-11-09T09:57:36;18.67;;;11.45;;
56037;SDS011;41907;47.848;9.000;2022-11-09T10:00:05;16.92;;;11.52;;
56037;SDS011;41907;47.848;9.000;2022-11-09T10:02:35;15.82;;;11.00;;
56037;SDS011;41907;47.848;9.000;2022-11-09T10:05:04;13.60;;;9.23;;
56037;SDS011;41907;47.848;9.000;2022-11-09T10:21:22;31.13;;;26.77;;
56037;SDS011;41907;47.848;9.000;2022-11-09T10:26:54;42.33;;;35.45;;
56037;SDS011;41907;47.848;9.000;2022-11-09T10:29:53;55.05;;;45.95;;
56037;SDS011;41907;47.848;9.000;2022-11-09T10:32:17;40.22;;;33.50;;
56037;SDS011;41907;47.848;9.000;2022-11-09T10:37:43;16.95;;;15.07;;
56037;SDS011;41907;47.848;9.000;2022-11-09T10:40:13;54.60;;;49.20;;
56037;SDS011;41907;47.848;9.000;2022-11-09T10:42:46;33.97;;;30.50;;
56037;SDS011;41907;47.848;9.000;2022-11-09T10:45:17;25.58;;;23.02;;
56037;SDS011;41907;47.848;9.000;2022-11-09T10:47:52;19.92;;;14.38;;
56037;SDS011;41907;47.848;9.000;2022-11-09T10:52:48;5.43;;;4.03;;
56037;SDS011;41907;47.848;9.000;2022-11-09T10:55:21;6.25;;;3.97;;
56037;SDS011;41907;47.848;9.000;2022-11-09T10:57:58;5.63;;;3.28;;
56037;SDS011;41907;47.848;9.000;2022-11-09T11:00:26;3.28;;;2.92;;
56037;SDS011;41907;47.848;9.000;2022-11-09T11:02:53;7.03;;;2.60;;
56037;SDS011;41907;47.848;9.000;2022-11-09T11:05:21;3.60;;;3.30;;
56037;SDS011;41907;47.848;9.000;2022-11-09T11:07:49;4.65;;;2.67;;
56037;SDS011;41907;47.848;9.000;2022-11-09T11:12:40;3.88;;;2.90;;
56037;SDS011;41907;47.848;9.000;2022-11-09T11:18:26;5.95;;;2.47;;
56037;SDS011;41907;47.848;9.000;2022-11-09T11:21:12;3.65;;;2.20;;
56037;SDS011;41907;47.848;9.000;2022-11-09T11:29:27;5.28;;;2.33;;
56037;SDS011;41907;47.848;9.000;2022-11-09T11:31:53;4.63;;;3.03;;
56037;SDS011;41907;47.848;9.000;2022-11-09T11:34:18;7.53;;;4.75;;
56037;SDS011;41907;47.848;9.000;2022-11-09T11:36:57;9.27;;;6.32;;
56037;SDS011;41907;47.848;9.000;2022-11-09T11:39:36;6.10;;;4.05;;
56037;SDS011;41907;47.848;9.000;2022-11-09T11:42:29;6.38;;;3.53;;
56037;SDS011;41907;47.848;9.000;2022-11-09T11:45:24;7.95;;;4.75;;
56037;SDS011;41907;47.848;9.000;2022-11-09T11:53:40;7.30;;;4.55;;
56037;SDS011;41907;47.848;9.000;2022-11-09T11:56:25;8.40;;;4.63;;
56037;SDS011;41907;47.848;9.000;2022-11-09T12:04:43;10.18;;;5.32;;
56037;SDS011;41907;47.848;9.000;2022-11-09T12:07:40;12.27;;;7.65;;
56037;SDS011;41907;47.848;9.000;2022-11-09T12:21:33;4.78;;;2.70;;
56037;SDS011;41907;47.848;9.000;2022-11-09T12:24:14;10.43;;;5.78;;
56037;SDS011;41907;47.848;9.000;2022-11-09T12:29:22;3.75;;;2.88;;
56037;SDS011;41907;47.848;9.000;2022-11-09T12:31:57;3.42;;;2.42;;
56037;SDS011;41907;47.848;9.000;2022-11-09T12:37:26;4.53;;;2.63;;
56037;SDS011;41907;47.848;9.000;2022-11-09T12:40:21;5.95;;;2.92;;
56037;SDS011;41907;47.848;9.000;2022-11-09T12:42:59;6.63;;;3.65;;
56037;SDS011;41907;47.848;9.000;2022-11-09T12:45:47;4.18;;;2.60;;
56037;SDS011;41907;47.848;9.000;2022-11-09T12:50:50;4.43;;;2.40;;
56037;SDS011;41907;47.848;9.000;2022-11-09T12:53:16;3.45;;;2.17;;
56037;SDS011;41907;47.848;9.000;2022-11-09T12:55:46;6.25;;;2.50;;
56037;SDS011;41907;47.848;9.000;2022-11-09T12:58:26;6.38;;;2.53;;
56037;SDS011;41907;47.848;9.000;2022-11-09T13:00:58;4.90;;;2.67;;
56037;SDS011;41907;47.848;9.000;2022-11-09T13:03:29;5.30;;;3.22;;
56037;SDS011;41907;47.848;9.000;2022-11-09T13:08:41;6.22;;;3.30;;
56037;SDS011;41907;47.848;9.000;2022-11-09T13:11:32;6.85;;;3.67;;
56037;SDS011;41907;47.848;9.000;2022-11-09T13:14:32;5.00;;;3.38;;
56037;SDS011;41907;47.848;9.000;2022-11-09T13:22:02;5.78;;;3.17;;
56037;SDS011;41907;47.848;9.000;2022-11-09T13:29:57;5.70;;;3.97;;
56037;SDS011;41907;47.848;9.000;2022-11-09T13:32:24;4.57;;;3.03;;
56037;SDS011;41907;47.848;9.000;2022-11-09T13:34:56;5.80;;;3.45;;
56037;SDS011;41907;47.848;9.000;2022-11-09T13:43:03;8.48;;;3.15;;
56037;SDS011;41907;47.848;9.000;2022-11-09T13:47:59;4.15;;;2.97;;
56037;SDS011;41907;47.848;9.000;2022-11-09T13:50:25;6.05;;;3.25;;
56037;SDS011;41907;47.848;9.000;2022-11-09T13:52:53;5.30;;;3.53;;
56037;SDS011;41907;47.848;9.000;2022-11-09T13:55:25;5.97;;;2.78;;
56037;SDS011;41907;47.848;9.000;2022-11-09T13:58:02;5.32;;;3.10;;
56037;SDS011;41907;47.848;9.000;2022-11-09T14:00:32;5.30;;;3.60;;
56037;SDS011;41907;47.848;9.000;2022-11-09T14:02:59;6.85;;;4.47;;
56037;SDS011;41907;47.848;9.000;2022-11-09T14:05:31;6.40;;;4.55;;
56037;SDS011;41907;47.848;9.000;2022-11-09T14:08:00;10.27;;;4.90;;
56037;SDS011;41907;47.848;9.000;2022-11-09T14:16:40;9.30;;;4.32;;
56037;SDS011;41907;47.848;9.000;2022-11-09T14:21:50;6.40;;;4.30;;
56037;SDS011;41907;47.848;9.000;2022-11-09T14:24:20;7.35;;;4.20;;
56037;SDS011;41907;47.848;9.000;2022-11-09T14:29:35;6.55;;;4.18;;
56037;SDS011;41907;47.848;9.000;2022-11-09T14:32:21;9.05;;;4.78;;
56037;SDS011;41907;47.848;9.000;2022-11-09T14:37:34;25.88;;;12.52;;
56037;SDS011;41907;47.848;9.000;2022-11-09T14:40:00;20.15;;;9.77;;
56037;SDS011;41907;47.848;9.000;2022-11-09T14:42:25;20.25;;;10.63;;
56037;SDS011;41907;47.848;9.000;2022-11-09T14:44:51;16.23;;;9.48;;
56037;SDS011;41907;47.848;9.000;2022-11-09T14:47:37;15.63;;;8.90;;
56037;SDS011;41907;47.848;9.000;2022-11-09T14:50:02;14.90;;;10.10;;
56037;SDS011;41907;47.848;9.000;2022-11-09T14:52:28;13.52;;;10.13;;
56037;SDS011;41907;47.848;9.000;2022-11-09T14:54:55;14.18;;;8.98;;
56037;SDS011;41907;47.848;9.000;2022-11-09T14:57:22;33.35;;;19.15;;
56037;SDS011;41907;47.848;9.000;2022-11-09T14:59:48;35.20;;;19.33;;
56037;SDS011;41907;47.848;9.000;2022-11-09T15:02:14;25.27;;;16.20;;
56037;SDS011;41907;47.848;9.000;2022-11-09T15:05:01;54.58;;;31.40;;
56037;SDS011;41907;47.848;9.000;2022-11-09T15:07:29;13.30;;;8.55;;
56037;SDS011;41907;47.848;9.000;2022-11-09T15:09:59;9.13;;;6.95;;
56037;SDS011;41907;47.848;9.000;2022-11-09T15:12:26;9.10;;;6.45;;
56037;SDS011;41907;47.848;9.000;2022-11-09T15:14:56;9.27;;;6.88;;
56037;SDS011;41907;47.848;9.000;2022-11-09T15:17:29;9.20;;;6.70;;
56037;SDS011;41907;47.848;9.000;2022-11-09T15:20:01;15.60;;;8.68;;
56037;SDS011;41907;47.848;9.000;2022-11-09T15:23:15;8.75;;;5.45;;
56037;SDS011;41907;47.848;9.000;2022-11-09T15:40:52;8.70;;;6.85;;
56037;SDS011;41907;47.848;9.000;2022-11-09T15:43:17;8.32;;;6.03;;
56037;SDS011;41907;47.848;9.000;2022-11-09T15:45:43;8.93;;;5.88;;
56037;SDS011;41907;47.848;9.000;2022-11-09T15:48:08;13.52;;;8.18;;
56037;SDS011;41907;47.848;9.000;2022-11-09T15:50:34;10.85;;;6.60;;
56037;SDS011;41907;47.848;9.000;2022-11-09T15:52:59;7.70;;;5.35;;
56037;SDS011;41907;47.848;9.000;2022-11-09T15:55:24;10.00;;;7.43;;
56037;SDS011;41907;47.848;9.000;2022-11-09T15:57:50;11.88;;;7.13;;
56037;SDS011;41907;47.848;9.000;2022-11-09T16:00:17;39.92;;;22.42;;
56037;SDS011;41907;47.848;9.000;2022-11-09T16:02:44;27.02;;;15.85;;
56037;SDS011;41907;47.848;9.000;2022-11-09T16:05:12;22.27;;;13.88;;
56037;SDS011;41907;47.848;9.000;2022-11-09T16:07:45;14.23;;;10.45;;
56037;SDS011;41907;47.848;9.000;2022-11-09T16:10:15;14.55;;;9.00;;
56037;SDS011;41907;47.848;9.000;2022-11-09T16:12:44;12.95;;;8.27;;
56037;SDS011;41907;47.848;9.000;2022-11-09T16:15:09;14.57;;;9.88;;
56037;SDS011;41907;47.848;9.000;2022-11-09T16:17:35;11.80;;;7.18;;
56037;SDS011;41907;47.848;9.000;2022-11-09T16:20:00;10.43;;;6.78;;
56037;SDS011;41907;47.848;9.000;2022-11-09T16:22:29;9.45;;;6.90;;
56037;SDS011;41907;47.848;9.000;2022-11-09T16:24:56;13.32;;;6.35;;
56037;SDS011;41907;47.848;9.000;2022-11-09T16:27:22;13.25;;;9.95;;
56037;SDS011;41907;47.848;9.000;2022-11-09T16:29:47;10.63;;;6.53;;
56037;SDS011;41907;47.848;9.000;2022-11-09T16:32:12;18.02;;;10.20;;
56037;SDS011;41907;47.848;9.000;2022-11-09T16:34:38;16.05;;;8.82;;
56037;SDS011;41907;47.848;9.000;2022-11-09T16:37:03;14.75;;;8.77;;
56037;SDS011;41907;47.848;9.000;2022-11-09T16:39:29;11.10;;;7.65;;
56037;SDS011;41907;47.848;9.000;2022-11-09T16:41:57;10.00;;;6.03;;
56037;SDS011;41907;47.848;9.000;2022-11-09T16:44:25;22.88;;;11.38;;
56037;SDS011;41907;47.848;9.000;2022-11-09T16:46:58;14.68;;;7.85;;